sensor_id;sensor_type;location;lat;lon;timestamp;temperature;humidity
29237;DHT22;16266;50.866;4.398;2022-08-01T00:00:23;21.60;99.90
29237;DHT22;16266;50.866;4.398;2022-08-01T00:02:49;21.50;99.90
29237;DHT22;16266;50.866;4.398;2022-08-01T00:05:14;21.60;99.90
29237;DHT22;16266;50.866;4.398;2022-08-01T00:07:40;21.50;99.90
29237;DHT22;16266;50.866;4.398;2022-08-01T00:10:12;21.50;99.90
29237;DHT22;16266;50.866;4.398;2022-08-01T00:12:39;21.50;99.90
29237;DHT22;16266;50.866;4.398;2022-08-01T00:15:06;21.50;99.90
29237;DHT22;16266;50.866;4.398;2022-08-01T00:17:32;21.50;99.90
29237;DHT22;16266;50.866;4.398;2022-08-01T00:19:58;21.40;99.90
29237;DHT22;16266;50.866;4.398;2022-08-01T00:22:24;21.40;99.90
29237;DHT22;16266;50.866;4.398;2022-08-01T00:24:49;21.40;99.90
29237;DHT22;16266;50.866;4.398;2022-08-01T00:27:15;21.50;99.90
29237;DHT22;16266;50.866;4.398;2022-08-01T00:29:41;21.40;99.90
29237;DHT22;16266;50.866;4.398;2022-08-01T00:32:06;21.50;99.90
29237;DHT22;16266;50.866;4.398;2022-08-01T00:34:32;21.50;99.90
29237;DHT22;16266;50.866;4.398;2022-08-01T00:36:58;21.40;99.90
29237;DHT22;16266;50.866;4.398;2022-08-01T00:39:23;21.40;99.90
29237;DHT22;16266;50.866;4.398;2022-08-01T00:41:49;21.40;99.90
29237;DHT22;16266;50.866;4.398;2022-08-01T00:44:15;21.30;99.90
29237;DHT22;16266;50.866;4.398;2022-08-01T00:46:40;21.30;99.90
29237;DHT22;16266;50.866;4.398;2022-08-01T00:49:06;21.30;99.90
29237;DHT22;16266;50.866;4.398;2022-08-01T00:51:32;21.20;99.90
29237;DHT22;16266;50.866;4.398;2022-08-01T00:53:59;21.20;99.90
29237;DHT22;16266;50.866;4.398;2022-08-01T00:56:26;21.20;99.90
29237;DHT22;16266;50.866;4.398;2022-08-01T00:58:54;21.20;99.90
29237;DHT22;16266;50.866;4.398;2022-08-01T01:01:20;21.20;99.90
29237;DHT22;16266;50.866;4.398;2022-08-01T01:03:48;21.00;99.90
29237;DHT22;16266;50.866;4.398;2022-08-01T01:09:33;21.10;99.90
29237;DHT22;16266;50.866;4.398;2022-08-01T01:17:11;21.10;99.90
29237;DHT22;16266;50.866;4.398;2022-08-01T01:19:41;21.10;99.90
29237;DHT22;16266;50.866;4.398;2022-08-01T01:22:24;21.10;99.90
29237;DHT22;16266;50.866;4.398;2022-08-01T01:30:32;21.10;99.90
29237;DHT22;16266;50.866;4.398;2022-08-01T01:33:01;21.00;99.90
29237;DHT22;16266;50.866;4.398;2022-08-01T01:35:33;21.00;99.90
29237;DHT22;16266;50.866;4.398;2022-08-01T01:38:10;21.20;99.90
29237;DHT22;16266;50.866;4.398;2022-08-01T01:40:36;21.20;99.90
29237;DHT22;16266;50.866;4.398;2022-08-01T01:43:03;21.20;99.90
29237;DHT22;16266;50.866;4.398;2022-08-01T01:45:30;21.20;99.90
29237;DHT22;16266;50.866;4.398;2022-08-01T01:47:56;21.20;99.90
29237;DHT22;16266;50.866;4.398;2022-08-01T01:50:24;21.20;99.90
29237;DHT22;16266;50.866;4.398;2022-08-01T01:52:52;21.30;99.90
29237;DHT22;16266;50.866;4.398;2022-08-01T01:55:22;21.20;99.90
29237;DHT22;16266;50.866;4.398;2022-08-01T01:57:51;21.10;99.90
29237;DHT22;16266;50.866;4.398;2022-08-01T02:00:18;21.20;99.90
29237;DHT22;16266;50.866;4.398;2022-08-01T02:02:44;21.10;99.90
29237;DHT22;16266;50.866;4.398;2022-08-01T02:05:12;21.20;99.90
29237;DHT22;16266;50.866;4.398;2022-08-01T02:07:39;21.10;99.90
29237;DHT22;16266;50.866;4.398;2022-08-01T02:10:06;21.00;99.90
29237;DHT22;16266;50.866;4.398;2022-08-01T02:12:35;21.00;99.90
29237;DHT22;16266;50.866;4.398;2022-08-01T02:15:02;21.10;99.90
29237;DHT22;16266;50.866;4.398;2022-08-01T02:17:29;21.00;99.90
29237;DHT22;16266;50.866;4.398;2022-08-01T02:19:56;21.00;99.90
29237;DHT22;16266;50.866;4.398;2022-08-01T02:22:30;21.00;99.90
29237;DHT22;16266;50.866;4.398;2022-08-01T02:25:10;21.10;99.90
29237;DHT22;16266;50.866;4.398;2022-08-01T02:27:44;21.00;99.90
29237;DHT22;16266;50.866;4.398;2022-08-01T02:30:12;21.10;99.90
29237;DHT22;16266;50.866;4.398;2022-08-01T02:32:58;21.10;99.90
29237;DHT22;16266;50.866;4.398;2022-08-01T02:35:28;21.10;99.90
29237;DHT22;16266;50.866;4.398;2022-08-01T02:37:56;21.20;99.90
29237;DHT22;16266;50.866;4.398;2022-08-01T02:40:23;21.10;99.90
29237;DHT22;16266;50.866;4.398;2022-08-01T02:42:52;21.20;99.90
29237;DHT22;16266;50.866;4.398;2022-08-01T02:45:24;21.10;99.90
29237;DHT22;16266;50.866;4.398;2022-08-01T02:47:53;21.10;99.90
29237;DHT22;16266;50.866;4.398;2022-08-01T02:50:21;21.20;99.90
29237;DHT22;16266;50.866;4.398;2022-08-01T02:52:50;21.10;99.90
29237;DHT22;16266;50.866;4.398;2022-08-01T02:55:17;20.90;99.90
29237;DHT22;16266;50.866;4.398;2022-08-01T02:57:45;21.00;99.90
29237;DHT22;16266;50.866;4.398;2022-08-01T03:00:15;21.00;99.90
29237;DHT22;16266;50.866;4.398;2022-08-01T03:02:42;20.90;99.90
29237;DHT22;16266;50.866;4.398;2022-08-01T03:05:10;20.90;99.90
29237;DHT22;16266;50.866;4.398;2022-08-01T03:07:38;21.10;99.90
29237;DHT22;16266;50.866;4.398;2022-08-01T03:10:04;21.10;99.90
29237;DHT22;16266;50.866;4.398;2022-08-01T03:12:31;21.10;99.90
29237;DHT22;16266;50.866;4.398;2022-08-01T03:14:59;21.00;99.90
29237;DHT22;16266;50.866;4.398;2022-08-01T03:17:27;21.00;99.90
29237;DHT22;16266;50.866;4.398;2022-08-01T03:19:54;21.00;99.90
29237;DHT22;16266;50.866;4.398;2022-08-01T03:22:23;21.00;99.90
29237;DHT22;16266;50.866;4.398;2022-08-01T03:24:52;21.00;99.90
29237;DHT22;16266;50.866;4.398;2022-08-01T03:27:22;20.70;99.90
29237;DHT22;16266;50.866;4.398;2022-08-01T03:29:51;20.80;99.90
29237;DHT22;16266;50.866;4.398;2022-08-01T03:32:19;20.80;99.90
29237;DHT22;16266;50.866;4.398;2022-08-01T03:34:46;20.80;99.90
29237;DHT22;16266;50.866;4.398;2022-08-01T03:37:22;20.70;99.90
29237;DHT22;16266;50.866;4.398;2022-08-01T03:39:58;20.70;99.90
29237;DHT22;16266;50.866;4.398;2022-08-01T03:42:34;20.80;99.90
29237;DHT22;16266;50.866;4.398;2022-08-01T03:45:07;20.80;99.90
29237;DHT22;16266;50.866;4.398;2022-08-01T03:47:38;20.60;99.90
29237;DHT22;16266;50.866;4.398;2022-08-01T03:50:08;20.60;99.90
29237;DHT22;16266;50.866;4.398;2022-08-01T03:52:38;20.60;99.90
29237;DHT22;16266;50.866;4.398;2022-08-01T03:55:06;20.60;99.90
29237;DHT22;16266;50.866;4.398;2022-08-01T03:57:33;20.50;99.90
29237;DHT22;16266;50.866;4.398;2022-08-01T04:00:00;20.60;99.90
29237;DHT22;16266;50.866;4.398;2022-08-01T04:02:27;20.50;99.90
29237;DHT22;16266;50.866;4.398;2022-08-01T04:04:54;20.50;99.90
29237;DHT22;16266;50.866;4.398;2022-08-01T04:07:24;20.50;99.90
29237;DHT22;16266;50.866;4.398;2022-08-01T04:09:51;20.50;99.90
29237;DHT22;16266;50.866;4.398;2022-08-01T04:12:17;20.50;99.90
29237;DHT22;16266;50.866;4.398;2022-08-01T04:14:43;20.40;99.90
29237;DHT22;16266;50.866;4.398;2022-08-01T04:17:08;20.40;99.90
29237;DHT22;16266;50.866;4.398;2022-08-01T04:19:34;20.30;99.90
29237;DHT22;16266;50.866;4.398;2022-08-01T04:22:00;20.40;99.90
29237;DHT22;16266;50.866;4.398;2022-08-01T04:24:27;20.30;99.90
29237;DHT22;16266;50.866;4.398;2022-08-01T04:26:56;20.30;99.90
29237;DHT22;16266;50.866;4.398;2022-08-01T04:29:23;20.30;99.90
29237;DHT22;16266;50.866;4.398;2022-08-01T04:31:50;20.20;99.90
29237;DHT22;16266;50.866;4.398;2022-08-01T04:34:25;20.20;99.90
29237;DHT22;16266;50.866;4.398;2022-08-01T04:36:54;20.20;99.90
29237;DHT22;16266;50.866;4.398;2022-08-01T04:39:23;20.20;99.90
29237;DHT22;16266;50.866;4.398;2022-08-01T04:41:49;20.10;99.90
29237;DHT22;16266;50.866;4.398;2022-08-01T04:44:16;20.00;99.90
29237;DHT22;16266;50.866;4.398;2022-08-01T04:46:43;20.00;99.90
29237;DHT22;16266;50.866;4.398;2022-08-01T04:49:10;19.90;99.90
29237;DHT22;16266;50.866;4.398;2022-08-01T04:51:48;20.00;99.90
29237;DHT22;16266;50.866;4.398;2022-08-01T04:54:14;20.00;99.90
29237;DHT22;16266;50.866;4.398;2022-08-01T04:56:40;20.10;99.90
29237;DHT22;16266;50.866;4.398;2022-08-01T04:59:07;20.10;99.90
29237;DHT22;16266;50.866;4.398;2022-08-01T05:01:51;20.10;99.90
29237;DHT22;16266;50.866;4.398;2022-08-01T05:04:17;20.00;99.90
29237;DHT22;16266;50.866;4.398;2022-08-01T05:06:42;20.10;99.90
29237;DHT22;16266;50.866;4.398;2022-08-01T05:09:08;20.10;99.90
29237;DHT22;16266;50.866;4.398;2022-08-01T05:11:33;20.10;99.90
29237;DHT22;16266;50.866;4.398;2022-08-01T05:13:59;20.00;99.90
29237;DHT22;16266;50.866;4.398;2022-08-01T05:16:25;20.10;99.90
29237;DHT22;16266;50.866;4.398;2022-08-01T05:18:50;20.00;99.90
29237;DHT22;16266;50.866;4.398;2022-08-01T05:21:16;19.90;99.90
29237;DHT22;16266;50.866;4.398;2022-08-01T05:23:42;19.90;99.90
29237;DHT22;16266;50.866;4.398;2022-08-01T05:26:08;19.80;99.90
29237;DHT22;16266;50.866;4.398;2022-08-01T05:28:33;19.70;99.90
29237;DHT22;16266;50.866;4.398;2022-08-01T05:30:59;19.60;99.90
29237;DHT22;16266;50.866;4.398;2022-08-01T05:33:24;19.50;99.90
29237;DHT22;16266;50.866;4.398;2022-08-01T05:35:50;19.50;99.90
29237;DHT22;16266;50.866;4.398;2022-08-01T05:38:16;19.50;99.90
29237;DHT22;16266;50.866;4.398;2022-08-01T05:40:41;19.50;99.90
29237;DHT22;16266;50.866;4.398;2022-08-01T05:43:07;19.60;99.90
29237;DHT22;16266;50.866;4.398;2022-08-01T05:45:33;19.70;99.90
29237;DHT22;16266;50.866;4.398;2022-08-01T05:47:58;19.90;99.90
29237;DHT22;16266;50.866;4.398;2022-08-01T05:50:24;20.10;99.90
29237;DHT22;16266;50.866;4.398;2022-08-01T05:52:49;20.20;99.90
29237;DHT22;16266;50.866;4.398;2022-08-01T05:55:15;20.30;99.90
29237;DHT22;16266;50.866;4.398;2022-08-01T05:57:40;20.40;99.90
29237;DHT22;16266;50.866;4.398;2022-08-01T06:00:07;20.40;99.90
29237;DHT22;16266;50.866;4.398;2022-08-01T06:02:33;20.50;99.90
29237;DHT22;16266;50.866;4.398;2022-08-01T06:04:58;20.40;99.90
29237;DHT22;16266;50.866;4.398;2022-08-01T06:07:24;20.50;99.90
29237;DHT22;16266;50.866;4.398;2022-08-01T06:09:49;20.70;99.90
29237;DHT22;16266;50.866;4.398;2022-08-01T06:12:15;20.50;99.90
29237;DHT22;16266;50.866;4.398;2022-08-01T06:14:40;20.70;99.90
29237;DHT22;16266;50.866;4.398;2022-08-01T06:17:06;20.90;99.90
29237;DHT22;16266;50.866;4.398;2022-08-01T06:19:32;21.00;99.90
29237;DHT22;16266;50.866;4.398;2022-08-01T06:21:57;21.20;99.90
29237;DHT22;16266;50.866;4.398;2022-08-01T06:24:23;21.30;99.90
29237;DHT22;16266;50.866;4.398;2022-08-01T06:26:49;21.20;99.90
29237;DHT22;16266;50.866;4.398;2022-08-01T06:29:15;21.40;99.90
29237;DHT22;16266;50.866;4.398;2022-08-01T06:31:40;21.50;99.90
29237;DHT22;16266;50.866;4.398;2022-08-01T06:34:06;21.70;99.90
29237;DHT22;16266;50.866;4.398;2022-08-01T06:36:33;21.80;99.90
29237;DHT22;16266;50.866;4.398;2022-08-01T06:38:59;21.90;99.90
29237;DHT22;16266;50.866;4.398;2022-08-01T06:41:24;22.00;99.90
29237;DHT22;16266;50.866;4.398;2022-08-01T06:43:50;22.70;99.90
29237;DHT22;16266;50.866;4.398;2022-08-01T06:46:16;23.20;99.90
29237;DHT22;16266;50.866;4.398;2022-08-01T06:48:41;23.80;99.90
29237;DHT22;16266;50.866;4.398;2022-08-01T06:51:08;24.10;99.90
29237;DHT22;16266;50.866;4.398;2022-08-01T06:53:37;24.30;99.90
29237;DHT22;16266;50.866;4.398;2022-08-01T06:56:04;24.50;99.90
29237;DHT22;16266;50.866;4.398;2022-08-01T06:58:30;25.20;99.90
29237;DHT22;16266;50.866;4.398;2022-08-01T07:00:55;24.90;99.90
29237;DHT22;16266;50.866;4.398;2022-08-01T07:03:21;24.70;99.90
29237;DHT22;16266;50.866;4.398;2022-08-01T07:05:47;24.50;99.90
29237;DHT22;16266;50.866;4.398;2022-08-01T07:08:12;24.40;99.90
29237;DHT22;16266;50.866;4.398;2022-08-01T07:10:38;24.10;99.90
29237;DHT22;16266;50.866;4.398;2022-08-01T07:13:03;24.10;99.90
29237;DHT22;16266;50.866;4.398;2022-08-01T07:15:29;24.10;99.90
29237;DHT22;16266;50.866;4.398;2022-08-01T07:17:55;24.30;99.90
29237;DHT22;16266;50.866;4.398;2022-08-01T07:20:22;25.20;99.90
29237;DHT22;16266;50.866;4.398;2022-08-01T07:22:47;26.20;99.90
29237;DHT22;16266;50.866;4.398;2022-08-01T07:25:13;26.80;99.90
29237;DHT22;16266;50.866;4.398;2022-08-01T07:27:39;27.10;99.90
29237;DHT22;16266;50.866;4.398;2022-08-01T07:30:05;27.60;99.90
29237;DHT22;16266;50.866;4.398;2022-08-01T07:32:31;27.80;99.90
29237;DHT22;16266;50.866;4.398;2022-08-01T07:34:57;28.20;99.90
29237;DHT22;16266;50.866;4.398;2022-08-01T07:37:23;28.40;99.90
29237;DHT22;16266;50.866;4.398;2022-08-01T07:39:49;28.70;99.90
29237;DHT22;16266;50.866;4.398;2022-08-01T07:42:15;28.60;99.90
29237;DHT22;16266;50.866;4.398;2022-08-01T07:44:42;28.50;99.90
29237;DHT22;16266;50.866;4.398;2022-08-01T07:47:07;28.70;99.90
29237;DHT22;16266;50.866;4.398;2022-08-01T07:49:34;28.50;99.90
29237;DHT22;16266;50.866;4.398;2022-08-01T07:52:00;28.80;99.90
29237;DHT22;16266;50.866;4.398;2022-08-01T07:54:25;29.40;99.90
29237;DHT22;16266;50.866;4.398;2022-08-01T07:56:53;30.20;99.90
29237;DHT22;16266;50.866;4.398;2022-08-01T07:59:19;30.20;99.90
29237;DHT22;16266;50.866;4.398;2022-08-01T08:01:49;30.50;99.90
29237;DHT22;16266;50.866;4.398;2022-08-01T08:04:17;30.60;99.50
29237;DHT22;16266;50.866;4.398;2022-08-01T08:06:42;30.00;97.30
29237;DHT22;16266;50.866;4.398;2022-08-01T08:09:08;29.30;98.20
29237;DHT22;16266;50.866;4.398;2022-08-01T08:11:34;28.90;98.90
29237;DHT22;16266;50.866;4.398;2022-08-01T08:13:59;28.90;99.90
29237;DHT22;16266;50.866;4.398;2022-08-01T08:16:25;29.60;99.90
29237;DHT22;16266;50.866;4.398;2022-08-01T08:18:51;30.00;97.80
29237;DHT22;16266;50.866;4.398;2022-08-01T08:21:17;30.30;95.90
29237;DHT22;16266;50.866;4.398;2022-08-01T08:23:43;30.30;96.20
29237;DHT22;16266;50.866;4.398;2022-08-01T08:26:27;30.10;95.40
29237;DHT22;16266;50.866;4.398;2022-08-01T08:28:52;29.80;97.40
29237;DHT22;16266;50.866;4.398;2022-08-01T08:31:18;29.50;96.60
29237;DHT22;16266;50.866;4.398;2022-08-01T08:33:43;29.80;97.40
29237;DHT22;16266;50.866;4.398;2022-08-01T08:36:09;30.60;94.90
29237;DHT22;16266;50.866;4.398;2022-08-01T08:38:36;32.20;91.90
29237;DHT22;16266;50.866;4.398;2022-08-01T08:41:02;33.00;77.10
29237;DHT22;16266;50.866;4.398;2022-08-01T08:43:27;33.60;69.60
29237;DHT22;16266;50.866;4.398;2022-08-01T08:45:53;34.80;60.90
29237;DHT22;16266;50.866;4.398;2022-08-01T08:48:19;36.70;54.10
29237;DHT22;16266;50.866;4.398;2022-08-01T08:50:45;38.80;39.60
29237;DHT22;16266;50.866;4.398;2022-08-01T08:53:13;39.20;31.50
29237;DHT22;16266;50.866;4.398;2022-08-01T08:55:41;37.40;32.80
29237;DHT22;16266;50.866;4.398;2022-08-01T08:58:11;36.30;34.70
29237;DHT22;16266;50.866;4.398;2022-08-01T09:00:39;35.60;35.50
29237;DHT22;16266;50.866;4.398;2022-08-01T09:03:05;35.90;35.10
29237;DHT22;16266;50.866;4.398;2022-08-01T09:05:30;37.40;33.60
29237;DHT22;16266;50.866;4.398;2022-08-01T09:07:57;37.70;31.10
29237;DHT22;16266;50.866;4.398;2022-08-01T09:10:22;37.50;30.50
29237;DHT22;16266;50.866;4.398;2022-08-01T09:15:53;36.30;30.70
29237;DHT22;16266;50.866;4.398;2022-08-01T09:18:39;35.30;33.30
29237;DHT22;16266;50.866;4.398;2022-08-01T09:21:21;34.80;34.50
29237;DHT22;16266;50.866;4.398;2022-08-01T09:23:54;34.10;36.50
29237;DHT22;16266;50.866;4.398;2022-08-01T09:26:22;33.70;38.20
29237;DHT22;16266;50.866;4.398;2022-08-01T09:28:53;33.40;39.10
29237;DHT22;16266;50.866;4.398;2022-08-01T09:31:19;32.80;41.20
29237;DHT22;16266;50.866;4.398;2022-08-01T09:36:14;32.20;46.40
29237;DHT22;16266;50.866;4.398;2022-08-01T09:38:39;32.30;46.70
29237;DHT22;16266;50.866;4.398;2022-08-01T09:41:05;32.30;46.60
29237;DHT22;16266;50.866;4.398;2022-08-01T09:43:33;34.30;43.00
29237;DHT22;16266;50.866;4.398;2022-08-01T09:46:08;36.10;38.30
29237;DHT22;16266;50.866;4.398;2022-08-01T09:48:36;38.00;32.70
29237;DHT22;16266;50.866;4.398;2022-08-01T09:51:05;39.30;28.10
29237;DHT22;16266;50.866;4.398;2022-08-01T09:53:48;41.10;26.10
29237;DHT22;16266;50.866;4.398;2022-08-01T09:56:15;43.00;20.30
29237;DHT22;16266;50.866;4.398;2022-08-01T09:58:51;44.00;18.30
29237;DHT22;16266;50.866;4.398;2022-08-01T10:01:16;43.80;16.20
29237;DHT22;16266;50.866;4.398;2022-08-01T10:03:45;43.10;15.00
29237;DHT22;16266;50.866;4.398;2022-08-01T10:06:21;43.40;15.10
29237;DHT22;16266;50.866;4.398;2022-08-01T10:08:48;44.70;14.40
29237;DHT22;16266;50.866;4.398;2022-08-01T10:11:13;42.70;13.70
29237;DHT22;16266;50.866;4.398;2022-08-01T10:13:40;40.80;15.60
29237;DHT22;16266;50.866;4.398;2022-08-01T10:16:06;38.40;17.70
29237;DHT22;16266;50.866;4.398;2022-08-01T10:18:34;36.90;19.60
29237;DHT22;16266;50.866;4.398;2022-08-01T10:21:01;36.00;21.40
29237;DHT22;16266;50.866;4.398;2022-08-01T10:23:30;34.90;24.00
29237;DHT22;16266;50.866;4.398;2022-08-01T10:25:58;34.20;23.70
29237;DHT22;16266;50.866;4.398;2022-08-01T10:28:25;35.60;23.60
29237;DHT22;16266;50.866;4.398;2022-08-01T10:30:52;37.00;19.50
29237;DHT22;16266;50.866;4.398;2022-08-01T10:33:18;36.70;20.50
29237;DHT22;16266;50.866;4.398;2022-08-01T10:35:46;37.30;20.50
29237;DHT22;16266;50.866;4.398;2022-08-01T10:38:12;37.20;21.30
29237;DHT22;16266;50.866;4.398;2022-08-01T10:40:40;37.10;21.20
29237;DHT22;16266;50.866;4.398;2022-08-01T10:43:06;37.10;21.20
29237;DHT22;16266;50.866;4.398;2022-08-01T10:45:33;37.20;21.30
29237;DHT22;16266;50.866;4.398;2022-08-01T10:50:49;37.50;19.50
29237;DHT22;16266;50.866;4.398;2022-08-01T10:53:22;38.20;20.60
29237;DHT22;16266;50.866;4.398;2022-08-01T10:58:28;39.70;16.40
29237;DHT22;16266;50.866;4.398;2022-08-01T11:01:26;38.90;17.10
29237;DHT22;16266;50.866;4.398;2022-08-01T11:14:22;38.10;19.20
29237;DHT22;16266;50.866;4.398;2022-08-01T11:16:47;39.90;17.60
29237;DHT22;16266;50.866;4.398;2022-08-01T11:19:13;40.30;15.70
29237;DHT22;16266;50.866;4.398;2022-08-01T11:27:22;38.80;18.00
29237;DHT22;16266;50.866;4.398;2022-08-01T11:33:02;41.40;14.90
29237;DHT22;16266;50.866;4.398;2022-08-01T11:35:28;41.50;14.00
29237;DHT22;16266;50.866;4.398;2022-08-01T11:37:54;42.10;14.00
29237;DHT22;16266;50.866;4.398;2022-08-01T11:40:23;42.00;13.80
29237;DHT22;16266;50.866;4.398;2022-08-01T11:45:54;42.20;13.00
29237;DHT22;16266;50.866;4.398;2022-08-01T11:48:26;43.00;12.30
29237;DHT22;16266;50.866;4.398;2022-08-01T11:50:54;43.00;11.20
29237;DHT22;16266;50.866;4.398;2022-08-01T11:53:20;41.70;11.60
29237;DHT22;16266;50.866;4.398;2022-08-01T11:55:48;41.00;12.30
29237;DHT22;16266;50.866;4.398;2022-08-01T11:58:15;40.30;12.40
29237;DHT22;16266;50.866;4.398;2022-08-01T12:00:41;40.40;13.50
29237;DHT22;16266;50.866;4.398;2022-08-01T12:03:15;41.40;13.20
29237;DHT22;16266;50.866;4.398;2022-08-01T12:05:44;40.90;12.60
29237;DHT22;16266;50.866;4.398;2022-08-01T12:08:09;40.20;13.20
29237;DHT22;16266;50.866;4.398;2022-08-01T12:10:35;39.80;14.10
29237;DHT22;16266;50.866;4.398;2022-08-01T12:13:05;39.70;14.00
29237;DHT22;16266;50.866;4.398;2022-08-01T12:15:37;38.80;14.40
29237;DHT22;16266;50.866;4.398;2022-08-01T12:18:05;38.10;14.80
29237;DHT22;16266;50.866;4.398;2022-08-01T12:20:36;38.00;15.50
29237;DHT22;16266;50.866;4.398;2022-08-01T12:23:05;38.40;16.00
29237;DHT22;16266;50.866;4.398;2022-08-01T12:25:32;38.90;14.30
29237;DHT22;16266;50.866;4.398;2022-08-01T12:28:03;38.50;14.80
29237;DHT22;16266;50.866;4.398;2022-08-01T12:30:30;37.40;14.40
29237;DHT22;16266;50.866;4.398;2022-08-01T12:32:57;37.50;14.80
29237;DHT22;16266;50.866;4.398;2022-08-01T12:35:27;38.10;14.50
29237;DHT22;16266;50.866;4.398;2022-08-01T12:37:58;37.50;14.30
29237;DHT22;16266;50.866;4.398;2022-08-01T12:40:27;37.80;14.10
29237;DHT22;16266;50.866;4.398;2022-08-01T12:43:07;38.00;14.90
29237;DHT22;16266;50.866;4.398;2022-08-01T12:48:07;40.60;12.70
29237;DHT22;16266;50.866;4.398;2022-08-01T12:50:34;41.20;11.30
29237;DHT22;16266;50.866;4.398;2022-08-01T12:53:02;41.40;10.80
29237;DHT22;16266;50.866;4.398;2022-08-01T12:55:28;40.40;11.90
29237;DHT22;16266;50.866;4.398;2022-08-01T12:58:07;42.10;10.90
29237;DHT22;16266;50.866;4.398;2022-08-01T13:00:34;40.60;12.00
29237;DHT22;16266;50.866;4.398;2022-08-01T13:03:08;39.80;11.20
29237;DHT22;16266;50.866;4.398;2022-08-01T13:05:48;38.80;11.80
29237;DHT22;16266;50.866;4.398;2022-08-01T13:08:25;37.80;13.30
29237;DHT22;16266;50.866;4.398;2022-08-01T13:11:20;36.60;15.20
29237;DHT22;16266;50.866;4.398;2022-08-01T13:13:48;34.30;17.30
29237;DHT22;16266;50.866;4.398;2022-08-01T13:16:16;33.60;18.20
29237;DHT22;16266;50.866;4.398;2022-08-01T13:18:48;32.30;19.30
29237;DHT22;16266;50.866;4.398;2022-08-01T13:21:20;31.30;21.50
29237;DHT22;16266;50.866;4.398;2022-08-01T13:26:51;31.30;22.30
29237;DHT22;16266;50.866;4.398;2022-08-01T13:29:36;31.50;21.30
29237;DHT22;16266;50.866;4.398;2022-08-01T13:32:16;31.10;21.00
29237;DHT22;16266;50.866;4.398;2022-08-01T13:34:42;32.00;21.50
29237;DHT22;16266;50.866;4.398;2022-08-01T13:37:08;32.90;19.80
29237;DHT22;16266;50.866;4.398;2022-08-01T13:39:34;32.30;20.50
29237;DHT22;16266;50.866;4.398;2022-08-01T13:42:14;32.40;20.70
29237;DHT22;16266;50.866;4.398;2022-08-01T13:44:41;31.70;20.40
29237;DHT22;16266;50.866;4.398;2022-08-01T13:47:08;30.60;20.00
29237;DHT22;16266;50.866;4.398;2022-08-01T13:49:34;30.00;21.20
29237;DHT22;16266;50.866;4.398;2022-08-01T13:52:01;31.00;20.70
29237;DHT22;16266;50.866;4.398;2022-08-01T13:54:27;31.60;20.20
29237;DHT22;16266;50.866;4.398;2022-08-01T13:56:53;32.80;19.50
29237;DHT22;16266;50.866;4.398;2022-08-01T13:59:19;33.10;19.30
29237;DHT22;16266;50.866;4.398;2022-08-01T14:01:45;33.90;18.40
29237;DHT22;16266;50.866;4.398;2022-08-01T14:04:11;33.50;18.10
29237;DHT22;16266;50.866;4.398;2022-08-01T14:06:37;32.60;19.40
29237;DHT22;16266;50.866;4.398;2022-08-01T14:09:03;31.80;20.30
29237;DHT22;16266;50.866;4.398;2022-08-01T14:11:29;32.30;19.50
29237;DHT22;16266;50.866;4.398;2022-08-01T14:13:55;32.50;19.60
29237;DHT22;16266;50.866;4.398;2022-08-01T14:16:21;33.10;18.90
29237;DHT22;16266;50.866;4.398;2022-08-01T14:18:46;33.30;18.50
29237;DHT22;16266;50.866;4.398;2022-08-01T14:21:12;32.50;19.10
29237;DHT22;16266;50.866;4.398;2022-08-01T14:23:38;32.40;18.50
29237;DHT22;16266;50.866;4.398;2022-08-01T14:26:03;31.60;19.40
29237;DHT22;16266;50.866;4.398;2022-08-01T14:28:29;31.80;19.90
29237;DHT22;16266;50.866;4.398;2022-08-01T14:30:56;32.00;19.00
29237;DHT22;16266;50.866;4.398;2022-08-01T14:33:22;31.70;19.60
29237;DHT22;16266;50.866;4.398;2022-08-01T14:35:48;31.30;20.70
29237;DHT22;16266;50.866;4.398;2022-08-01T14:38:13;31.20;20.40
29237;DHT22;16266;50.866;4.398;2022-08-01T14:40:39;30.90;21.10
29237;DHT22;16266;50.866;4.398;2022-08-01T14:43:07;31.50;21.10
29237;DHT22;16266;50.866;4.398;2022-08-01T14:45:33;31.70;21.10
29237;DHT22;16266;50.866;4.398;2022-08-01T14:47:59;31.40;20.80
29237;DHT22;16266;50.866;4.398;2022-08-01T14:50:25;30.80;20.80
29237;DHT22;16266;50.866;4.398;2022-08-01T14:52:52;31.00;20.50
29237;DHT22;16266;50.866;4.398;2022-08-01T14:55:18;30.60;20.60
29237;DHT22;16266;50.866;4.398;2022-08-01T14:57:43;30.20;21.00
29237;DHT22;16266;50.866;4.398;2022-08-01T15:00:10;30.00;21.00
29237;DHT22;16266;50.866;4.398;2022-08-01T15:02:38;29.70;21.40
29237;DHT22;16266;50.866;4.398;2022-08-01T15:05:04;29.70;21.90
29237;DHT22;16266;50.866;4.398;2022-08-01T15:07:29;29.60;21.40
29237;DHT22;16266;50.866;4.398;2022-08-01T15:09:55;29.60;22.20
29237;DHT22;16266;50.866;4.398;2022-08-01T15:12:21;29.30;23.30
29237;DHT22;16266;50.866;4.398;2022-08-01T15:14:47;28.80;22.80
29237;DHT22;16266;50.866;4.398;2022-08-01T15:17:24;28.80;23.10
29237;DHT22;16266;50.866;4.398;2022-08-01T15:19:52;28.40;23.60
29237;DHT22;16266;50.866;4.398;2022-08-01T15:22:19;28.40;24.40
29237;DHT22;16266;50.866;4.398;2022-08-01T15:24:45;28.30;24.50
29237;DHT22;16266;50.866;4.398;2022-08-01T15:27:10;28.20;24.80
29237;DHT22;16266;50.866;4.398;2022-08-01T15:29:36;28.20;24.80
29237;DHT22;16266;50.866;4.398;2022-08-01T15:32:04;27.70;25.50
29237;DHT22;16266;50.866;4.398;2022-08-01T15:34:30;27.80;25.60
29237;DHT22;16266;50.866;4.398;2022-08-01T15:36:57;28.00;25.10
29237;DHT22;16266;50.866;4.398;2022-08-01T15:39:23;28.40;24.80
29237;DHT22;16266;50.866;4.398;2022-08-01T15:41:49;28.40;24.60
29237;DHT22;16266;50.866;4.398;2022-08-01T15:44:15;28.40;25.00
29237;DHT22;16266;50.866;4.398;2022-08-01T15:46:48;28.60;24.90
29237;DHT22;16266;50.866;4.398;2022-08-01T15:49:14;28.90;24.60
29237;DHT22;16266;50.866;4.398;2022-08-01T15:51:41;28.80;24.60
29237;DHT22;16266;50.866;4.398;2022-08-01T15:54:07;29.10;25.10
29237;DHT22;16266;50.866;4.398;2022-08-01T15:56:33;29.00;24.40
29237;DHT22;16266;50.866;4.398;2022-08-01T15:58:59;28.70;24.00
29237;DHT22;16266;50.866;4.398;2022-08-01T16:01:25;28.70;23.90
29237;DHT22;16266;50.866;4.398;2022-08-01T16:03:55;28.80;24.00
29237;DHT22;16266;50.866;4.398;2022-08-01T16:06:21;28.30;23.80
29237;DHT22;16266;50.866;4.398;2022-08-01T16:08:47;28.00;24.50
29237;DHT22;16266;50.866;4.398;2022-08-01T16:11:12;28.00;24.80
29237;DHT22;16266;50.866;4.398;2022-08-01T16:13:38;28.00;24.70
29237;DHT22;16266;50.866;4.398;2022-08-01T16:16:06;27.70;25.10
29237;DHT22;16266;50.866;4.398;2022-08-01T16:18:31;27.50;25.70
29237;DHT22;16266;50.866;4.398;2022-08-01T16:20:57;27.60;25.80
29237;DHT22;16266;50.866;4.398;2022-08-01T16:23:23;27.60;26.10
29237;DHT22;16266;50.866;4.398;2022-08-01T16:25:49;27.50;26.50